createdAt,value
2018-06-08T00:00:22.691Z,54.33
2018-06-08T00:01:32.435Z,53.85
2018-06-08T00:02:42.213Z,53.66
2018-06-08T00:03:52.264Z,54.04
2018-06-08T00:05:02.271Z,54.23
2018-06-08T00:06:12.287Z,55
2018-06-08T00:07:22.292Z,55.57
2018-06-08T00:08:32.357Z,54.97
2018-06-08T00:09:42.376Z,55.07
2018-06-08T00:10:52.381Z,55.16
2018-06-08T00:12:02.388Z,54.97
2018-06-08T00:13:12.134Z,55.07
2018-06-08T00:14:22.146Z,55.07
2018-06-08T00:15:32.153Z,55.16
2018-06-08T00:16:42.170Z,55.54
2018-06-08T00:17:52.180Z,55.74
2018-06-08T00:19:02.200Z,55.83
2018-06-08T00:20:12.210Z,56.12
2018-06-08T00:21:22.223Z,55.54
2018-06-08T00:22:32.236Z,55.83
2018-06-08T00:23:41.723Z,55.45
2018-06-08T00:24:51.465Z,55.54
2018-06-08T00:26:01.482Z,55.45
2018-06-08T00:27:11.227Z,55.35
2018-06-08T00:28:21.244Z,55.71
2018-06-08T00:29:31.314Z,55.8
2018-06-08T00:30:41.323Z,55.32
2018-06-08T00:31:50.795Z,55.42
2018-06-08T00:33:00.799Z,56.38
2018-06-08T00:34:10.549Z,56.28
2018-06-08T00:35:20.562Z,56.47
2018-06-08T00:36:30.565Z,56.47
2018-06-08T00:37:40.572Z,56.18
2018-06-08T00:38:50.311Z,57.04
2018-06-08T00:40:00.318Z,57.33
2018-06-08T00:41:10.330Z,57.33
2018-06-08T00:42:20.336Z,57.33
2018-06-08T00:43:30.349Z,57.24
2018-06-08T00:44:40.357Z,57.53
2018-06-08T00:45:50.365Z,56.95
2018-06-08T00:47:00.109Z,57.24
2018-06-08T00:48:09.588Z,57.24
2018-06-08T00:49:19.602Z,57.11
2018-06-08T00:50:29.341Z,57.11
2018-06-08T00:51:39.341Z,57.11
2018-06-08T00:52:48.562Z,57.11
2018-06-08T00:53:58.621Z,57.68
2018-06-08T00:55:08.362Z,57.68
2018-06-08T00:56:17.572Z,57.59
2018-06-08T00:57:27.589Z,57.78
2018-06-08T00:58:37.617Z,57.78
2018-06-08T00:59:47.631Z,57.87
2018-06-08T01:00:57.116Z,58.36
2018-06-08T01:02:06.346Z,58.64
2018-06-08T01:03:16.088Z,59.22
2018-06-08T01:04:25.874Z,58.54
2018-06-08T01:05:35.361Z,59.31
2018-06-08T01:06:45.103Z,59.02
2018-06-08T01:07:54.844Z,59.22
2018-06-08T01:09:04.594Z,58.26
2018-06-08T01:10:14.591Z,58.99
2018-06-08T01:11:24.594Z,59.28
2018-06-08T01:12:34.603Z,59.28
2018-06-08T01:13:44.609Z,59.38
2018-06-08T01:14:54.344Z,59.09
2018-06-08T01:16:04.085Z,60.14
2018-06-08T01:17:13.836Z,59.98
2018-06-08T01:18:23.314Z,60.14
2018-06-08T01:19:33.323Z,60.14
2018-06-08T01:20:43.072Z,59.95
2018-06-08T01:21:52.809Z,60.04
2018-06-08T01:23:02.288Z,60.24
2018-06-08T01:24:12.029Z,59.47
2018-06-08T01:25:21.507Z,59.09
2018-06-08T01:26:31.512Z,59.28
2018-06-08T01:27:40.997Z,60.14
2018-06-08T01:28:51.006Z,59.28
2018-06-08T01:30:00.485Z,60.24
2018-06-08T01:31:09.968Z,60.24
2018-06-08T01:32:19.974Z,59.76
2018-06-08T01:33:29.984Z,59.47
2018-06-08T01:34:39.461Z,60.14
2018-06-08T01:35:49.466Z,61.1
2018-06-08T01:36:59.479Z,60.71
2018-06-08T01:38:09.501Z,60.71
2018-06-08T01:39:18.717Z,61.29
2018-06-08T01:40:28.731Z,61.29
2018-06-08T01:41:38.735Z,61.95
2018-06-08T01:42:48.740Z,61.95
2018-06-08T01:43:58.222Z,61.86
2018-06-08T01:45:07.698Z,61.86
2018-06-08T01:46:17.180Z,61.86
2018-06-08T01:47:27.189Z,61.76
2018-06-08T01:48:37.191Z,62.15
2018-06-08T01:49:47.203Z,62.91
2018-06-08T01:50:56.679Z,62.4
2018-06-08T01:52:06.169Z,62.34
2018-06-08T01:53:15.914Z,62.43
2018-06-08T01:54:25.918Z,61.95
2018-06-08T01:55:35.401Z,62.05
2018-06-08T01:56:44.878Z,62.15
2018-06-08T01:57:54.891Z,62.24
2018-06-08T01:59:04.365Z,61.86
2018-06-08T02:00:14.111Z,61.86
2018-06-08T02:01:24.119Z,61.38
2018-06-08T02:02:34.132Z,61.57
2018-06-08T02:03:44.160Z,61.76
2018-06-08T02:04:54.203Z,61.95
2018-06-08T02:06:03.680Z,61.38
2018-06-08T02:07:13.421Z,61.19
2018-06-08T02:08:23.426Z,61.57
2018-06-08T02:09:33.180Z,61.19
2018-06-08T02:10:42.121Z,61.38
2018-06-08T02:11:51.325Z,61.1
2018-06-08T02:13:01.341Z,61.19
2018-06-08T02:14:11.092Z,61.1
2018-06-08T02:15:20.836Z,60.9
2018-06-08T02:16:30.838Z,61.66
2018-06-08T02:17:40.874Z,62.62
2018-06-08T02:18:50.883Z,63.57
2018-06-08T02:20:00.360Z,63.2
2018-06-08T02:21:09.841Z,64.43
2018-06-08T02:22:19.599Z,65.01
2018-06-08T02:23:29.609Z,65.1
2018-06-08T02:24:39.617Z,65.07
2018-06-08T02:25:49.378Z,65.93
2018-06-08T02:26:59.386Z,65.93
2018-06-08T02:28:08.861Z,65.93
2018-06-08T02:29:18.334Z,66.41
2018-06-08T02:30:28.374Z,66.78
2018-06-08T02:31:38.122Z,66.78
2018-06-08T02:32:47.898Z,66.88
2018-06-08T02:33:57.904Z,66.78
2018-06-08T02:35:07.650Z,66.5
2018-06-08T02:36:17.129Z,67.36
2018-06-08T02:37:26.894Z,67.74
2018-06-08T02:38:36.917Z,67.93
2018-06-08T02:39:46.400Z,68.12
2018-06-08T02:40:56.414Z,67.65
2018-06-08T02:42:06.161Z,68.28
2018-06-08T02:43:15.916Z,67.9
2018-06-08T02:44:25.931Z,67.74
2018-06-08T02:45:35.417Z,67.99
2018-06-08T02:46:45.439Z,68.28
2018-06-08T02:47:54.913Z,68.09
2018-06-08T02:49:04.389Z,68.47
2018-06-08T02:50:13.886Z,68.76
2018-06-08T02:51:23.636Z,69.14
2018-06-08T02:52:33.117Z,69.52
2018-06-08T02:53:43.123Z,69.43
2018-06-08T02:54:53.127Z,69.62
2018-06-08T02:56:02.878Z,70.09
2018-06-08T02:57:12.368Z,70.28
2018-06-08T02:58:22.387Z,69.52
2018-06-08T02:59:31.604Z,70.19
2018-06-08T03:03:24.979Z,70.19
2018-06-08T03:04:34.738Z,70.47
2018-06-08T03:05:43.943Z,70.47
2018-06-08T03:06:53.695Z,70.47
2018-06-08T03:08:03.444Z,69.9
2018-06-08T03:09:13.204Z,70.28
2018-06-08T03:10:23.216Z,70.67
2018-06-08T03:11:33.219Z,71.04
2018-06-08T03:12:43.234Z,71.23
2018-06-08T03:13:52.983Z,71.33
2018-06-08T03:15:02.727Z,71.04
2018-06-08T03:16:12.735Z,71.66
2018-06-08T03:17:22.748Z,70.95
2018-06-08T03:18:32.489Z,70.95
2018-06-08T03:19:42.495Z,70.86
2018-06-08T03:20:52.238Z,70.47
2018-06-08T03:22:02.246Z,71.46
2018-06-08T03:23:11.983Z,72.42
2018-06-08T03:24:21.989Z,72.23
2018-06-08T03:25:31.790Z,72.42
2018-06-08T03:26:41.533Z,72.61
2018-06-08T03:27:51.544Z,72.42
2018-06-08T03:29:01.556Z,71.94
2018-06-08T03:30:11.031Z,72.8
2018-06-08T03:31:20.508Z,73.28
2018-06-08T03:32:30.263Z,72.99
2018-06-08T03:33:40.039Z,72.71
2018-06-08T03:34:50.053Z,72.89
2018-06-08T03:35:59.678Z,73.08
2018-06-08T03:37:09.280Z,72.99
2018-06-08T03:38:19.294Z,73.28
2018-06-08T03:39:28.772Z,72.71
2018-06-08T03:40:38.797Z,73.08
2018-06-08T03:41:48.810Z,73.85
2018-06-08T03:42:58.817Z,74.19
2018-06-08T03:44:08.293Z,74.04
2018-06-08T03:45:18.039Z,74.04
2018-06-08T03:46:28.052Z,73.85
2018-06-08T03:47:37.794Z,74.42
2018-06-08T03:48:47.541Z,74.77
2018-06-08T03:49:57.345Z,74.13
2018-06-08T03:51:07.087Z,73.56
2018-06-08T03:52:17.090Z,73.18
2018-06-08T03:53:26.831Z,73.18
2018-06-08T03:54:36.301Z,72.61
2018-06-08T03:55:46.315Z,72.8
2018-06-08T03:56:56.376Z,72.42
2018-06-08T03:58:05.851Z,72.23
2018-06-08T03:59:15.858Z,71.94
2018-06-08T04:00:25.864Z,72.51
2018-06-08T04:01:35.885Z,72.42
2018-06-08T04:02:45.625Z,71.84
2018-06-08T04:03:55.365Z,71.08
2018-06-08T04:05:05.110Z,71.59
2018-06-08T04:06:14.850Z,71.27
2018-06-08T04:07:24.590Z,70.7
2018-06-08T04:08:34.640Z,70.61
2018-06-08T04:09:44.389Z,70.83
2018-06-08T04:10:54.136Z,70.32
2018-06-08T04:12:03.609Z,70.83
2018-06-08T04:13:13.352Z,69.87
2018-06-08T04:14:22.828Z,70.54
2018-06-08T04:15:32.567Z,70.64
2018-06-08T04:16:42.622Z,70.07
2018-06-08T04:17:52.370Z,69.4
2018-06-08T04:19:01.844Z,69.97
2018-06-08T04:20:11.855Z,68.63
2018-06-08T04:21:21.862Z,69.49
2018-06-08T04:22:31.865Z,69.31
2018-06-08T04:23:41.339Z,69.02
2018-06-08T04:24:51.078Z,68.63
2018-06-08T04:26:00.556Z,68.06
2018-06-08T04:27:10.583Z,67.87
2018-06-08T04:28:20.593Z,68.16
2018-06-08T04:29:30.599Z,67.43
2018-06-08T04:30:40.629Z,66.95
2018-06-08T04:31:50.636Z,67.33
2018-06-08T04:33:00.416Z,66.76
2018-06-08T04:34:10.330Z,66.66
2018-06-08T04:35:20.076Z,66.19
2018-06-08T04:36:30.089Z,66.56
2018-06-08T04:37:40.102Z,66.09
2018-06-08T04:38:50.112Z,65.71
2018-06-08T04:40:00.115Z,66
2018-06-08T04:41:09.594Z,65.74
2018-06-08T04:42:19.366Z,64.98
2018-06-08T04:43:29.110Z,65.36
2018-06-08T04:44:38.845Z,66.22
2018-06-08T04:45:48.583Z,66.5
2018-06-08T04:46:58.327Z,66.31
2018-06-08T04:48:08.355Z,66.6
2018-06-08T04:49:18.100Z,65.93
2018-06-08T04:50:28.108Z,66.13
2018-06-08T04:51:37.952Z,66.6
2018-06-08T04:52:48.011Z,66.6
2018-06-08T04:53:57.759Z,66.25
2018-06-08T04:55:07.336Z,66.03
2018-06-08T04:56:17.084Z,65.45
2018-06-08T04:57:27.094Z,65.3
2018-06-08T04:58:37.093Z,65.39
2018-06-08T04:59:46.833Z,65.01
2018-06-08T05:00:56.595Z,65.68
2018-06-08T05:02:06.339Z,65.97
2018-06-08T05:03:15.549Z,65.11
2018-06-08T05:04:25.025Z,64.91
2018-06-08T05:05:35.042Z,64.72
2018-06-08T05:06:44.516Z,64.91
2018-06-08T05:07:53.727Z,65.68
2018-06-08T05:09:03.729Z,64.53
2018-06-08T05:10:13.484Z,64.82
2018-06-08T05:11:22.959Z,64.05
2018-06-08T05:12:32.702Z,64.34
2018-06-08T05:13:42.710Z,64.43
2018-06-08T05:14:52.548Z,64.37
2018-06-08T05:16:02.569Z,64.09
2018-06-08T05:17:12.311Z,63.89
2018-06-08T05:18:22.069Z,63.99
2018-06-08T05:19:32.083Z,63.99
2018-06-08T05:20:42.094Z,63.89
2018-06-08T05:21:52.105Z,63.32
2018-06-08T05:23:02.160Z,62.74
2018-06-08T05:24:11.634Z,63.32
2018-06-08T05:25:21.641Z,63.8
2018-06-08T05:26:31.385Z,63.89
2018-06-08T05:27:41.139Z,63.7
2018-06-08T05:28:51.216Z,63.03
2018-06-08T05:30:01.232Z,63.32
2018-06-08T05:31:10.982Z,63.03
2018-06-08T05:32:20.733Z,63.99
2018-06-08T05:33:30.746Z,63.7
2018-06-08T05:34:40.224Z,63.13
2018-06-08T05:35:49.966Z,62.84
2018-06-08T05:36:59.978Z,63.03
2018-06-08T05:38:09.726Z,63.06
2018-06-08T05:39:19.742Z,62.68
2018-06-08T05:40:29.801Z,62.87
2018-06-08T05:41:39.839Z,62.01
2018-06-08T05:42:49.906Z,62.11
2018-06-08T05:43:59.385Z,62.68
2018-06-08T05:45:09.404Z,62.2
2018-06-08T05:46:19.159Z,62.11
2018-06-08T05:47:28.898Z,62.01
2018-06-08T05:48:39.048Z,61.91
2018-06-08T05:49:48.800Z,61.54
2018-06-08T05:50:58.812Z,61.82
2018-06-08T05:52:08.823Z,60.77
2018-06-08T05:53:18.569Z,60.77
2018-06-08T05:54:28.313Z,60.58
2018-06-08T05:55:38.341Z,60.8
2018-06-08T05:56:48.364Z,60.86
2018-06-08T05:57:58.376Z,60.86
2018-06-08T05:59:08.385Z,60.13
2018-06-08T06:00:17.870Z,60.89
2018-06-08T06:01:27.892Z,60.7
2018-06-08T06:02:37.913Z,60.8
2018-06-08T06:03:47.931Z,60.7
2018-06-08T06:04:57.935Z,60.32
2018-06-08T06:06:07.690Z,60.32
2018-06-08T06:07:17.440Z,60.13
2018-06-08T06:08:27.450Z,60.32
2018-06-08T06:09:37.199Z,59.84
2018-06-08T06:10:46.947Z,60.8
2018-06-08T06:11:56.424Z,60.8
2018-06-08T06:13:06.172Z,60.89
2018-06-08T06:14:16.188Z,61.28
2018-06-08T06:15:25.668Z,60.89
2018-06-08T06:16:35.416Z,62.43
2018-06-08T06:17:45.430Z,62.43
2018-06-08T06:18:55.439Z,63.39
2018-06-08T06:20:04.922Z,61.94
2018-06-08T06:21:15.037Z,61.08
2018-06-08T06:22:24.796Z,61.66
2018-06-08T06:23:34.550Z,61.47
2018-06-08T06:24:44.566Z,61.18
2018-06-08T06:25:54.051Z,61.28
2018-06-08T06:27:03.805Z,63.1
2018-06-08T06:28:13.548Z,62.62
2018-06-08T06:29:23.290Z,62.71
2018-06-08T06:30:32.502Z,62.23
2018-06-08T06:31:41.984Z,62.14
2018-06-08T06:32:51.732Z,62.81
2018-06-08T06:34:01.745Z,62.9
2018-06-08T06:35:11.762Z,61.57
2018-06-08T06:36:21.776Z,61.08
2018-06-08T06:37:31.518Z,60.8
2018-06-08T06:38:40.990Z,60.61
2018-06-08T06:39:50.997Z,61.57
2018-06-08T06:41:01.005Z,61.37
2018-06-08T06:42:10.479Z,60.73
2018-06-08T06:43:20.233Z,60.83
2018-06-08T06:44:29.984Z,59.77
2018-06-08T06:45:40.043Z,58.72
2018-06-08T06:46:50.057Z,58.53
2018-06-08T06:48:00.072Z,58.72
2018-06-08T06:49:09.819Z,58.24
2018-06-08T06:50:19.828Z,57.95
2018-06-08T06:51:29.619Z,57.57
2018-06-08T06:52:39.363Z,57.48
2018-06-08T06:53:49.112Z,57.31
2018-06-08T06:54:59.139Z,57.57
2018-06-08T06:56:08.618Z,57.98
2018-06-08T06:57:18.647Z,57.89
2018-06-08T06:58:28.397Z,56.83
2018-06-08T06:59:38.407Z,56.83
2018-06-08T07:00:48.157Z,56.74
2018-06-08T07:01:58.172Z,56.07
2018-06-08T07:03:07.926Z,56.35
2018-06-08T07:04:17.669Z,55.78
2018-06-08T07:05:27.520Z,55.49
2018-06-08T07:06:37.545Z,55.4
2018-06-08T07:07:47.292Z,55.62
2018-06-08T07:08:57.300Z,55.8
2018-06-08T07:10:06.781Z,55.62
2018-06-08T07:11:16.255Z,55.42
2018-06-08T07:12:26.272Z,56.48
2018-06-08T07:13:36.293Z,55.62
2018-06-08T07:14:46.038Z,54.56
2018-06-08T07:15:55.784Z,54.37
2018-06-08T07:17:05.799Z,53.79
2018-06-08T07:18:15.816Z,53.41
2018-06-08T07:19:25.553Z,52.57
2018-06-08T07:20:35.313Z,52.57
2018-06-08T07:21:45.321Z,52.09
2018-06-08T07:22:55.329Z,52.38
2018-06-08T07:24:05.397Z,52.19
2018-06-08T07:25:15.140Z,52.48
2018-06-08T07:26:25.147Z,52.48
2018-06-08T07:27:34.891Z,52
2018-06-08T07:28:44.900Z,51.61
2018-06-08T07:29:54.912Z,51.04
2018-06-08T07:31:04.128Z,50.75
2018-06-08T07:32:13.879Z,50.84
2018-06-08T07:33:23.104Z,50.78
2018-06-08T07:34:32.853Z,51.16
2018-06-08T07:35:42.865Z,50.96
2018-06-08T07:36:52.878Z,50.96
2018-06-08T07:38:02.890Z,50.58
2018-06-08T07:39:12.827Z,50.68
2018-06-08T07:40:22.060Z,50.58
2018-06-08T07:41:31.786Z,50.01
2018-06-08T07:42:41.808Z,49.91
2018-06-08T07:43:51.838Z,49.72
2018-06-08T07:45:01.582Z,49.62
2018-06-08T07:46:11.324Z,49.43
2018-06-08T07:47:20.537Z,49.33
2018-06-08T07:48:30.615Z,48.97
2018-06-08T07:49:40.359Z,48.11
2018-06-08T07:50:50.113Z,48.4
2018-06-08T07:51:59.860Z,48.11
2018-06-08T07:53:09.350Z,48.79
2018-06-08T07:54:19.107Z,48.69
2018-06-08T07:55:28.585Z,48.79
2018-06-08T07:56:38.332Z,49.07
2018-06-08T07:57:48.075Z,48.69
2018-06-08T07:58:57.904Z,48.4
2018-06-08T08:00:07.647Z,48.69
2018-06-08T08:01:17.508Z,48.79
2018-06-08T08:02:27.262Z,48.59
2018-06-08T08:03:37.010Z,48.79
2018-06-08T08:04:47.043Z,48.43
2018-06-08T08:05:57.056Z,48.23
2018-06-08T08:07:06.807Z,47.94
2018-06-08T08:08:16.817Z,47.85
2018-06-08T08:09:26.305Z,48.04
2018-06-08T08:10:36.316Z,48.23
2018-06-08T08:11:45.799Z,48.33
2018-06-08T08:12:55.923Z,47.36
2018-06-08T08:14:05.663Z,47.17
2018-06-08T08:15:15.157Z,47.27
2018-06-08T08:16:25.187Z,47.36
2018-06-08T08:17:35.206Z,47.17
2018-06-08T08:18:45.224Z,46.91
2018-06-08T08:19:55.248Z,46.62
2018-06-08T08:21:04.741Z,46.33
2018-06-08T08:22:14.752Z,46.81
2018-06-08T08:23:24.497Z,46.72
2018-06-08T08:24:34.242Z,46.81
2018-06-08T08:25:44.048Z,46.14
2018-06-08T08:26:53.640Z,46.53
2018-06-08T08:28:03.668Z,46.04
2018-06-08T08:29:13.149Z,46.53
2018-06-08T08:30:22.902Z,45.95
2018-06-08T08:31:32.924Z,45.49
2018-06-08T08:32:42.137Z,45.2
2018-06-08T08:33:52.156Z,44.99
2018-06-08T08:35:02.217Z,44.24
2018-06-08T08:36:11.443Z,44.24
2018-06-08T08:37:21.455Z,44.53
2018-06-08T08:38:31.206Z,44.24
2018-06-08T08:39:41.007Z,44.14
2018-06-08T08:40:50.652Z,44.24
2018-06-08T08:42:00.414Z,43.85
2018-06-08T08:43:10.162Z,43.47
2018-06-08T08:44:20.168Z,43.88
2018-06-08T08:45:29.670Z,43.88
2018-06-08T08:46:38.628Z,43.28
2018-06-08T08:47:48.652Z,43.3
2018-06-08T08:48:58.139Z,43.68
2018-06-08T08:50:08.167Z,43.3
2018-06-08T08:51:17.650Z,43.59
2018-06-08T08:52:27.697Z,43.4
2018-06-08T08:53:37.180Z,43.11
2018-06-08T08:54:47.190Z,42.82
2018-06-08T08:55:57.200Z,42.63
2018-06-08T08:57:07.016Z,42.33
2018-06-08T08:58:16.829Z,42.24
2018-06-08T08:59:26.580Z,42.53
2018-06-08T09:00:36.592Z,42.65
2018-06-08T09:01:46.358Z,41.95
2018-06-08T09:02:56.386Z,42.07
2018-06-08T09:04:06.507Z,41.88
2018-06-08T09:05:16.518Z,41.39
2018-06-08T09:06:25.732Z,41.88
2018-06-08T09:07:35.744Z,41.88
2018-06-08T09:08:45.489Z,41.49
2018-06-08T09:09:55.551Z,41.39
2018-06-08T09:11:05.292Z,41.2
2018-06-08T09:12:15.316Z,40.63
2018-06-08T09:13:24.801Z,40.53
2018-06-08T09:14:34.811Z,40.81
2018-06-08T09:15:44.831Z,39.95
2018-06-08T09:16:54.582Z,40.63
2018-06-08T09:18:04.595Z,40.14
2018-06-08T09:19:14.612Z,40.14
2018-06-08T09:20:24.633Z,39.66
2018-06-08T09:21:34.447Z,39.86
2018-06-08T09:22:44.191Z,40.53
2018-06-08T09:23:53.943Z,40.64
2018-06-08T09:25:03.689Z,40.45
2018-06-08T09:26:13.453Z,40.45
2018-06-08T09:27:23.125Z,39.87
2018-06-08T09:28:32.915Z,39.39
2018-06-08T09:29:42.939Z,39.2
2018-06-08T09:30:52.956Z,38.81
2018-06-08T09:32:02.975Z,39.78
2018-06-08T09:33:12.542Z,39.68
2018-06-08T09:34:22.673Z,39.49
2018-06-08T09:35:32.431Z,38.91
2018-06-08T09:36:42.460Z,39.49
2018-06-08T09:37:51.939Z,39.29
2018-06-08T09:39:01.953Z,38.81
2018-06-08T09:40:11.175Z,38.14
2018-06-08T09:41:20.666Z,38.26
2018-06-08T09:42:30.418Z,38.26
2018-06-08T09:43:39.900Z,38.64
2018-06-08T09:44:49.648Z,38.93
2018-06-08T09:45:59.865Z,38.93
2018-06-08T09:47:09.720Z,38.74
2018-06-08T09:48:19.470Z,38.74
2018-06-08T09:49:29.493Z,38.16
2018-06-08T09:50:38.770Z,37.87
2018-06-08T09:51:48.524Z,38.35
2018-06-08T09:52:58.546Z,38.54
2018-06-08T09:54:08.572Z,38.66
2018-06-08T09:55:18.586Z,37.96
2018-06-08T09:56:28.605Z,38.74
2018-06-08T09:57:38.351Z,38.83
2018-06-08T09:58:48.374Z,38.95
2018-06-08T09:59:58.395Z,37.6
2018-06-08T10:01:08.162Z,36.25
2018-06-08T10:02:17.914Z,36.73
2018-06-08T10:03:27.666Z,36.44
2018-06-08T10:04:37.680Z,36.06
2018-06-08T10:05:47.432Z,35.67
2018-06-08T10:06:57.185Z,34.9
2018-06-08T10:08:06.930Z,35.3
2018-06-08T10:09:16.942Z,34.34
2018-06-08T10:10:26.997Z,34.7
2018-06-08T10:11:35.945Z,34.9
2018-06-08T10:12:45.966Z,34.53
2018-06-08T10:13:55.987Z,33.57
2018-06-08T10:15:05.739Z,33.09
2018-06-08T10:16:15.488Z,33.37
2018-06-08T10:17:25.511Z,33.18
2018-06-08T10:18:35.269Z,33.95
2018-06-08T10:19:45.018Z,34.24
2018-06-08T10:20:55.245Z,34.44
2018-06-08T10:22:04.797Z,33.95
2018-06-08T10:23:14.877Z,34.36
2018-06-08T10:24:24.898Z,33.68
2018-06-08T10:25:34.910Z,33.39
2018-06-08T10:26:44.925Z,33.29
2018-06-08T10:27:54.670Z,33.48
2018-06-08T10:29:04.436Z,32.81
2018-06-08T10:30:14.194Z,33.2
2018-06-08T10:31:24.206Z,33
2018-06-08T10:32:33.952Z,33.1
2018-06-08T10:33:43.431Z,33.2
2018-06-08T10:34:53.455Z,33.48
2018-06-08T10:36:03.201Z,33.39
2018-06-08T10:37:12.949Z,33.48
2018-06-08T10:38:22.969Z,33.6
2018-06-08T10:39:32.716Z,33.31
2018-06-08T10:40:42.731Z,33.6
2018-06-08T10:41:52.493Z,33.89
2018-06-08T10:43:02.255Z,33.7
2018-06-08T10:44:12.000Z,33.6
2018-06-08T10:45:21.752Z,34.18
2018-06-08T10:46:31.509Z,34.18
2018-06-08T10:47:41.372Z,33.31
2018-06-08T10:48:51.205Z,33.23
2018-06-08T10:50:01.225Z,33.81
2018-06-08T10:51:11.250Z,33.42
2018-06-08T10:52:20.998Z,33.72
2018-06-08T10:53:30.745Z,33.81
2018-06-08T10:54:40.590Z,33.33
2018-06-08T10:55:50.604Z,33.23
2018-06-08T10:57:00.352Z,33.14
2018-06-08T10:58:10.366Z,33.72
2018-06-08T10:59:20.381Z,34.29
2018-06-08T11:00:33.507Z,33.81
2018-06-08T11:01:43.268Z,34.29
2018-06-08T11:02:53.284Z,34
2018-06-08T11:04:03.295Z,32.94
2018-06-08T11:05:13.328Z,33.33
2018-06-08T11:06:23.355Z,33.91
2018-06-08T11:07:33.368Z,33.52
2018-06-08T11:08:43.504Z,34.29
2018-06-08T11:09:53.264Z,34.41
2018-06-08T11:11:03.293Z,33.92
2018-06-08T11:12:13.307Z,33.73
2018-06-08T11:13:22.795Z,33.73
2018-06-08T11:14:32.282Z,33.73
2018-06-08T11:15:42.295Z,34.31
2018-06-08T11:16:52.311Z,33.25
2018-06-08T11:18:01.261Z,33.54
2018-06-08T11:19:11.282Z,32.96
2018-06-08T11:20:21.028Z,33.34
2018-06-08T11:21:31.058Z,33.44
2018-06-08T11:22:41.332Z,33.63
2018-06-08T11:23:51.079Z,33.55
2018-06-08T11:25:00.828Z,33.36
2018-06-08T11:26:10.575Z,33.34
2018-06-08T11:27:20.065Z,33.55
2018-06-08T11:28:30.116Z,33.36
2018-06-08T11:29:39.834Z,33.17
2018-06-08T11:30:49.858Z,32.21
2018-06-08T11:31:59.615Z,32.7
2018-06-08T11:33:09.370Z,32.6
2018-06-08T11:34:19.387Z,32.81
2018-06-08T11:35:29.135Z,31.37
2018-06-08T11:36:38.885Z,30.62
2018-06-08T11:37:48.900Z,29.57
2018-06-08T11:38:58.914Z,29.28
2018-06-08T11:40:08.133Z,29.4
2018-06-08T11:41:17.881Z,27.97
2018-06-08T11:42:27.631Z,27.79
2018-06-08T11:43:37.389Z,27.32
2018-06-08T11:44:47.402Z,26.65
2018-06-08T11:45:57.591Z,25.49
2018-06-08T11:47:07.353Z,25.12
2018-06-08T11:48:17.121Z,25.13
2018-06-08T11:49:26.609Z,24.17
2018-06-08T11:50:36.635Z,24.38
2018-06-08T11:51:46.657Z,24.39
2018-06-08T11:52:56.150Z,23.73
2018-06-08T11:54:05.915Z,22.96
2018-06-08T11:55:15.937Z,22.19
2018-06-08T11:56:25.968Z,22.2
2018-06-08T11:57:35.737Z,21.23
2018-06-08T11:58:45.227Z,20.84
2018-06-08T11:59:55.253Z,21.23
2018-06-08T12:01:05.093Z,21.14
2018-06-08T12:02:14.852Z,20.76
2018-06-08T12:03:24.609Z,20.57
2018-06-08T12:04:34.635Z,20.09
2018-06-08T12:05:44.401Z,20.4
2018-06-08T12:06:54.164Z,19.13
2018-06-08T12:08:03.924Z,19.93
2018-06-08T12:09:13.691Z,19.45
2018-06-08T12:10:23.722Z,18.38
2018-06-08T12:11:33.748Z,17.8
2018-06-08T12:12:43.771Z,17.61
2018-06-08T12:13:53.807Z,17.33
2018-06-08T12:15:03.567Z,17.92
2018-06-08T12:16:13.600Z,17.33
2018-06-08T12:17:23.630Z,17.24
2018-06-08T12:18:33.654Z,16.26
2018-06-08T12:19:43.687Z,16.26
2018-06-08T12:20:53.719Z,16.07
2018-06-08T12:22:03.217Z,16.57
2018-06-08T12:23:12.982Z,15.58
2018-06-08T12:24:23.009Z,15.48
2018-06-08T12:25:32.777Z,15.09
2018-06-08T12:26:42.272Z,15.59
2018-06-08T12:27:52.042Z,15.11
2018-06-08T12:29:02.083Z,14.71
2018-06-08T12:30:11.320Z,15.01
2018-06-08T12:31:21.349Z,15.01
2018-06-08T12:32:31.384Z,15.03
2018-06-08T12:33:40.878Z,14.15
2018-06-08T12:34:50.646Z,13.26
2018-06-08T12:36:00.404Z,13.46
2018-06-08T12:37:09.943Z,13.46
2018-06-08T12:38:19.976Z,13.67
2018-06-08T12:39:29.737Z,13.68
2018-06-08T12:40:39.232Z,12.88
2018-06-08T12:41:49.276Z,12.59
2018-06-08T12:42:59.042Z,12.79
2018-06-08T12:44:09.085Z,12.4
2018-06-08T12:45:18.848Z,12.01
2018-06-08T12:46:28.611Z,11.61
2018-06-08T12:47:38.642Z,11.9
2018-06-08T12:48:48.402Z,11.51
2018-06-08T12:49:58.482Z,11.8
2018-06-08T12:51:07.712Z,11.41
2018-06-08T12:52:17.741Z,11.3
2018-06-08T12:53:27.772Z,11.59
2018-06-08T12:54:37.547Z,12.18
2018-06-08T12:55:46.913Z,12.77
2018-06-08T12:56:56.169Z,11.78
2018-06-08T12:58:05.401Z,12.29
2018-06-08T12:59:15.162Z,11.99
2018-06-08T13:00:24.657Z,12.19
2018-06-08T13:01:34.693Z,11.41
2018-06-08T13:02:44.464Z,11.9
2018-06-08T13:03:54.508Z,11.31
2018-06-08T13:05:04.008Z,11.41
2018-06-08T13:06:12.979Z,10.52
2018-06-08T13:07:23.011Z,11.41
2018-06-08T13:08:32.510Z,10.52
2018-06-08T13:09:42.275Z,11.41
2018-06-08T13:10:52.461Z,11.02
2018-06-08T13:12:02.621Z,10.82
2018-06-08T13:13:12.386Z,10.52
2018-06-08T13:14:22.414Z,10.03
2018-06-08T13:15:32.182Z,10.13
2018-06-08T13:16:41.713Z,9.83
2018-06-08T13:17:51.215Z,10.92
2018-06-08T13:19:01.271Z,10.52
2018-06-08T13:20:11.123Z,10.63
2018-06-08T13:21:20.594Z,10.43
2018-06-08T13:22:30.111Z,9.74
2018-06-08T13:23:40.150Z,9.55
2018-06-08T13:24:49.650Z,9.45
2018-06-08T13:25:59.449Z,9.34
2018-06-08T13:27:08.965Z,9.45
2018-06-08T13:28:18.729Z,8.96
2018-06-08T13:29:28.778Z,8.96
2018-06-08T13:30:38.870Z,8.46
2018-06-08T13:31:48.635Z,9.06
2018-06-08T13:32:58.792Z,8.96
2018-06-08T13:34:08.647Z,8.57
2018-06-08T13:35:18.143Z,8.47
2018-06-08T13:36:28.184Z,8.17
2018-06-08T13:37:37.955Z,8.17
2018-06-08T13:38:47.478Z,8.57
2018-06-08T13:39:57.514Z,8.07
2018-06-08T13:41:07.287Z,8.58
2018-06-08T13:42:17.326Z,7.98
2018-06-08T13:43:27.357Z,7.88
2018-06-08T13:44:37.129Z,7.97
2018-06-08T13:45:46.631Z,8.27
2018-06-08T13:46:56.406Z,8.18
2018-06-08T13:48:06.170Z,7.78
2018-06-08T13:49:16.202Z,7.78
2018-06-08T13:50:25.966Z,8.68
2018-06-08T13:51:35.999Z,8.29
2018-06-08T13:52:45.817Z,8
2018-06-08T13:53:55.598Z,8.19
2018-06-08T13:55:05.632Z,8
2018-06-08T13:56:15.395Z,7.4
2018-06-08T13:57:25.430Z,6.8
2018-06-08T13:58:35.191Z,6.99
2018-06-08T13:59:45.227Z,7.29
2018-06-08T14:00:55.258Z,7.39
2018-06-08T14:02:04.532Z,6.6
2018-06-08T14:03:14.458Z,6.7
2018-06-08T14:04:24.495Z,7.2
2018-06-08T14:05:33.993Z,7.59
2018-06-08T14:06:44.030Z,6.99
2018-06-08T14:07:53.799Z,7
2018-06-08T14:09:03.567Z,6.6
2018-06-08T14:10:13.602Z,6.6
2018-06-08T14:11:23.633Z,6.79
2018-06-08T14:12:33.669Z,6.7
2018-06-08T14:13:43.704Z,6.7
2018-06-08T14:14:53.739Z,6.2
2018-06-08T14:16:03.242Z,6.3
2018-06-08T14:17:12.747Z,6.49
2018-06-08T14:18:22.785Z,6.4
2018-06-08T14:19:32.829Z,6.79
2018-06-08T14:20:42.595Z,6.49
2018-06-08T14:21:52.413Z,6.4
2018-06-08T14:23:02.456Z,7.09
2018-06-08T14:24:12.221Z,6.6
2018-06-08T14:25:22.256Z,6.7
2018-06-08T14:26:31.758Z,6.4
2018-06-08T14:27:41.632Z,6.6
2018-06-08T14:28:51.394Z,6.4
2018-06-08T14:30:01.434Z,6.8
2018-06-08T14:31:11.512Z,6.3
2018-06-08T14:32:21.283Z,6.6
2018-06-08T14:33:30.783Z,6.2
2018-06-08T14:34:40.023Z,6.29
2018-06-08T14:35:50.063Z,6.59
2018-06-08T14:37:00.093Z,6.79
2018-06-08T14:38:09.911Z,6.59
2018-06-08T14:39:20.034Z,6.99
2018-06-08T14:40:30.077Z,6.78
2018-06-08T14:41:40.156Z,6.59
2018-06-08T14:42:50.218Z,6.59
2018-06-08T14:44:00.265Z,7.37
2018-06-08T14:45:10.311Z,6.88
2018-06-08T14:46:20.359Z,6.77
2018-06-08T14:47:30.406Z,7.38
2018-06-08T14:48:40.085Z,7.18
2018-06-08T14:49:49.588Z,6.68
2018-06-08T14:50:59.616Z,7.18
2018-06-08T14:52:09.656Z,7.58
2018-06-08T14:53:19.691Z,7.48
2018-06-08T14:54:29.718Z,7.29
2018-06-08T14:55:39.487Z,7.18
2018-06-08T14:56:49.261Z,7.39
2018-06-08T14:57:59.028Z,6.58
2018-06-08T14:59:08.848Z,8.17
2018-06-08T15:00:18.888Z,7.57
2018-06-08T15:01:28.924Z,7.77
2018-06-08T15:02:38.963Z,7.97
2018-06-08T15:03:48.989Z,7.37
2018-06-08T15:04:58.490Z,7.17
2018-06-08T15:06:08.005Z,7.37
2018-06-08T15:07:17.771Z,7.97
2018-06-08T15:08:27.807Z,7.56
2018-06-08T15:09:37.581Z,7.86